createdAt,value
2023-04-24T00:00:48.881Z,0.00
2023-04-24T00:01:52.747Z,0.00
2023-04-24T00:02:56.229Z,0.00
2023-04-24T00:04:00.061Z,0.00
2023-04-24T00:05:03.414Z,0.00
2023-04-24T00:06:06.886Z,0.00
2023-04-24T00:07:10.471Z,0.00
2023-04-24T00:08:13.858Z,0.00
2023-04-24T00:09:17.612Z,0.00
2023-04-24T00:10:20.811Z,0.00
2023-04-24T00:11:27.951Z,0.43
2023-04-24T00:12:31.040Z,0.00
2023-04-24T00:13:34.084Z,0.00
2023-04-24T00:14:37.813Z,0.00
2023-04-24T00:15:40.777Z,0.00
2023-04-24T00:16:44.390Z,0.00
2023-04-24T00:17:47.717Z,0.00
2023-04-24T00:18:51.026Z,0.00
2023-04-24T00:19:54.221Z,0.00
2023-04-24T00:20:57.694Z,0.00
2023-04-24T00:22:00.974Z,0.00
2023-04-24T00:23:03.977Z,0.00
2023-04-24T00:24:07.750Z,0.00
2023-04-24T00:25:11.052Z,0.00
2023-04-24T00:26:14.798Z,0.00
2023-04-24T00:27:18.692Z,0.00
2023-04-24T00:28:21.728Z,0.00
2023-04-24T00:29:25.015Z,0.00
2023-04-24T00:30:28.164Z,0.00
2023-04-24T00:31:31.727Z,0.00
2023-04-24T00:32:35.557Z,0.00
2023-04-24T00:33:39.175Z,0.00
2023-04-24T00:34:42.742Z,0.00
2023-04-24T00:35:46.189Z,0.00
2023-04-24T00:36:49.534Z,0.00
2023-04-24T00:37:52.721Z,0.00
2023-04-24T00:38:56.018Z,0.00
2023-04-24T00:39:59.548Z,0.00
2023-04-24T00:41:02.756Z,0.00
2023-04-24T00:42:06.378Z,0.00
2023-04-24T00:43:10.629Z,0.00
2023-04-24T00:44:14.461Z,0.00
2023-04-24T00:45:18.277Z,0.00
2023-04-24T00:46:21.762Z,0.00
2023-04-24T00:47:25.163Z,0.00
2023-04-24T00:48:28.492Z,0.00
2023-04-24T00:49:32.186Z,0.00
2023-04-24T00:50:35.792Z,0.00
2023-04-24T00:51:39.021Z,0.00
2023-04-24T00:52:42.667Z,0.00
2023-04-24T00:53:46.882Z,0.00
2023-04-24T00:54:50.685Z,0.00
2023-04-24T00:55:54.380Z,0.14
2023-04-24T00:56:58.396Z,0.00
2023-04-24T00:58:01.589Z,0.00
2023-04-24T00:59:04.749Z,0.00
2023-04-24T01:00:08.062Z,0.00
2023-04-24T01:01:11.512Z,0.00
2023-04-24T01:02:15.176Z,0.00
2023-04-24T01:03:18.995Z,0.00
2023-04-24T01:04:22.865Z,0.00
2023-04-24T01:05:26.100Z,0.00
2023-04-24T01:06:29.382Z,0.00
2023-04-24T01:07:32.817Z,0.00
2023-04-24T01:08:36.155Z,0.00
2023-04-24T01:09:39.601Z,0.00
2023-04-24T01:10:42.926Z,0.00
2023-04-24T01:11:46.210Z,0.00
2023-04-24T01:12:49.747Z,0.00
2023-04-24T01:13:53.191Z,0.00
2023-04-24T01:14:56.678Z,0.00
2023-04-24T01:16:00.177Z,0.00
2023-04-24T01:17:03.472Z,0.00
2023-04-24T01:18:07.150Z,0.00
2023-04-24T01:19:10.526Z,0.00
2023-04-24T01:20:14.431Z,0.00
2023-04-24T01:21:18.009Z,0.00
2023-04-24T01:22:21.412Z,0.00
2023-04-24T01:23:25.281Z,0.00
2023-04-24T01:24:28.607Z,0.00
2023-04-24T01:25:32.575Z,0.00
2023-04-24T01:26:36.168Z,0.00
2023-04-24T01:27:39.986Z,0.00
2023-04-24T01:28:43.758Z,0.00
2023-04-24T01:29:47.559Z,0.14
2023-04-24T01:30:51.761Z,0.43
2023-04-24T01:31:55.064Z,0.00
2023-04-24T01:32:58.511Z,0.00
2023-04-24T01:34:01.736Z,0.00
2023-04-24T01:35:05.495Z,0.00
2023-04-24T01:36:09.313Z,0.00
2023-04-24T01:37:12.608Z,0.00
2023-04-24T01:38:16.414Z,0.00
2023-04-24T01:39:19.690Z,0.00
2023-04-24T01:40:22.900Z,0.00
2023-04-24T01:41:27.733Z,0.00
2023-04-24T01:42:30.779Z,0.00
2023-04-24T01:43:33.914Z,0.00
2023-04-24T01:44:38.366Z,0.00
2023-04-24T01:45:41.238Z,0.00
2023-04-24T01:46:45.062Z,0.00
2023-04-24T01:47:48.152Z,0.00
2023-04-24T01:48:51.311Z,0.00
2023-04-24T01:49:54.351Z,0.57
2023-04-24T01:50:57.760Z,0.00
2023-04-24T01:52:01.129Z,0.43
2023-04-24T01:53:04.645Z,0.00
2023-04-24T01:54:07.832Z,0.00
2023-04-24T01:55:10.997Z,0.17
2023-04-24T01:56:14.196Z,0.17
2023-04-24T01:57:17.279Z,0.00
2023-04-24T01:58:20.558Z,0.67
2023-04-24T01:59:23.763Z,2.00
2023-04-24T02:00:27.221Z,1.14
2023-04-24T02:01:30.706Z,1.00
2023-04-24T02:02:34.482Z,1.43
2023-04-24T02:03:38.125Z,1.57
2023-04-24T02:04:41.707Z,1.57
2023-04-24T02:05:44.953Z,0.57
2023-04-24T02:06:47.961Z,0.67
2023-04-24T02:07:51.527Z,1.00
2023-04-24T02:08:54.919Z,0.62
2023-04-24T02:09:58.293Z,1.00
2023-04-24T02:11:01.694Z,1.43
2023-04-24T02:12:05.178Z,1.57
2023-04-24T02:13:09.182Z,1.00
2023-04-24T02:14:12.773Z,0.86
2023-04-24T02:15:16.478Z,1.25
2023-04-24T02:16:23.136Z,2.29
2023-04-24T02:17:26.354Z,1.62
2023-04-24T02:18:29.894Z,1.00
2023-04-24T02:19:33.206Z,1.00
2023-04-24T02:20:36.374Z,1.14
2023-04-24T02:21:40.078Z,1.00
2023-04-24T02:22:43.276Z,1.00
2023-04-24T02:23:46.707Z,2.00
2023-04-24T02:24:49.933Z,1.43
2023-04-24T02:25:53.313Z,0.43
2023-04-24T02:26:56.962Z,1.33
2023-04-24T02:28:00.589Z,1.29
2023-04-24T02:29:03.910Z,0.57
2023-04-24T02:30:07.392Z,0.43
2023-04-24T02:31:11.051Z,1.00
2023-04-24T02:32:14.306Z,0.57
2023-04-24T02:33:17.654Z,0.33
2023-04-24T02:34:21.089Z,2.00
2023-04-24T02:35:24.406Z,1.57
2023-04-24T02:36:27.645Z,1.00
2023-04-24T02:37:30.897Z,0.29
2023-04-24T02:38:34.163Z,0.43
2023-04-24T02:39:38.124Z,0.86
2023-04-24T02:40:41.344Z,1.12
2023-04-24T02:41:44.746Z,1.71
2023-04-24T02:42:48.435Z,0.71
2023-04-24T02:43:51.704Z,1.00
2023-04-24T02:44:55.588Z,0.86
2023-04-24T02:45:59.197Z,1.71
2023-04-24T02:47:02.666Z,1.57
2023-04-24T02:48:05.695Z,1.57
2023-04-24T02:49:08.951Z,0.00
2023-04-24T02:50:12.349Z,0.43
2023-04-24T02:51:15.927Z,0.57
2023-04-24T02:52:19.113Z,0.00
2023-04-24T02:53:22.621Z,0.29
2023-04-24T02:54:25.789Z,1.14
2023-04-24T02:55:29.059Z,1.43
2023-04-24T02:56:32.838Z,1.86
2023-04-24T02:57:36.432Z,0.62
2023-04-24T02:58:39.444Z,1.71
2023-04-24T02:59:42.971Z,1.57
2023-04-24T03:00:46.367Z,0.57
2023-04-24T03:01:49.885Z,1.50
2023-04-24T03:02:53.436Z,1.00
2023-04-24T03:03:56.877Z,1.43
2023-04-24T03:05:00.868Z,2.43
2023-04-24T03:06:05.203Z,1.71
2023-04-24T03:07:08.709Z,1.43
2023-04-24T03:08:11.951Z,2.43
2023-04-24T03:09:15.135Z,3.00
2023-04-24T03:10:18.603Z,3.00
2023-04-24T03:11:21.703Z,2.29
2023-04-24T03:12:24.894Z,0.86
2023-04-24T03:13:28.246Z,2.29
2023-04-24T03:14:31.257Z,3.14
2023-04-24T03:15:34.230Z,1.86
2023-04-24T03:16:37.329Z,1.83
2023-04-24T03:17:40.958Z,1.57
2023-04-24T03:18:44.259Z,1.00
2023-04-24T03:19:47.465Z,0.43
2023-04-24T03:20:50.946Z,1.00
2023-04-24T03:21:54.218Z,1.00
2023-04-24T03:22:57.493Z,0.71
2023-04-24T03:24:00.808Z,1.00
2023-04-24T03:25:03.924Z,1.14
2023-04-24T03:26:06.900Z,1.00
2023-04-24T03:27:09.894Z,1.57
2023-04-24T03:28:12.822Z,1.17
2023-04-24T03:29:15.804Z,1.00
2023-04-24T03:30:18.633Z,1.00
2023-04-24T03:31:21.667Z,1.33
2023-04-24T03:32:24.811Z,1.67
2023-04-24T03:33:27.707Z,0.86
2023-04-24T03:34:30.724Z,0.57
2023-04-24T03:35:33.584Z,1.17
2023-04-24T03:36:36.552Z,1.67
2023-04-24T03:37:39.739Z,1.43
2023-04-24T03:38:42.656Z,1.71
2023-04-24T03:39:45.715Z,1.50
2023-04-24T03:40:48.719Z,2.00
2023-04-24T03:41:51.506Z,1.57
2023-04-24T03:42:54.748Z,1.33
2023-04-24T03:43:57.434Z,1.14
2023-04-24T03:45:00.404Z,1.33
2023-04-24T03:46:03.394Z,2.67
2023-04-24T03:47:06.261Z,1.29
2023-04-24T03:48:09.273Z,2.86
2023-04-24T03:49:12.083Z,3.86
2023-04-24T03:50:14.992Z,1.67
2023-04-24T03:51:18.085Z,0.86
2023-04-24T03:52:20.946Z,0.33
2023-04-24T03:53:23.617Z,0.83
2023-04-24T03:54:26.535Z,0.33
2023-04-24T03:55:29.420Z,1.00
2023-04-24T03:56:32.418Z,1.43
2023-04-24T03:57:35.278Z,1.50
2023-04-24T03:58:38.237Z,1.67
2023-04-24T03:59:41.237Z,1.43
2023-04-24T04:00:44.436Z,1.50
2023-04-24T04:01:47.548Z,1.17
2023-04-24T04:02:50.638Z,1.00
2023-04-24T04:03:54.197Z,1.86
2023-04-24T04:04:57.402Z,1.50
2023-04-24T04:06:00.268Z,0.17
2023-04-24T04:07:03.116Z,0.83
2023-04-24T04:08:06.004Z,0.57
2023-04-24T04:09:09.128Z,1.00
2023-04-24T04:10:11.759Z,0.57
2023-04-24T04:11:14.534Z,0.33
2023-04-24T04:12:17.159Z,1.17
2023-04-24T04:13:19.914Z,0.33
2023-04-24T04:14:23.005Z,0.00
2023-04-24T04:15:25.809Z,0.50
2023-04-24T04:16:28.733Z,0.00
2023-04-24T04:17:31.692Z,0.43
2023-04-24T04:18:34.587Z,0.83
2023-04-24T04:19:37.508Z,0.50
2023-04-24T04:20:40.355Z,1.00
2023-04-24T04:21:43.175Z,1.00
2023-04-24T04:22:46.032Z,1.00
2023-04-24T04:23:48.920Z,1.67
2023-04-24T04:24:51.936Z,2.00
2023-04-24T04:25:54.842Z,1.43
2023-04-24T04:26:57.771Z,1.17
2023-04-24T04:28:00.417Z,1.17
2023-04-24T04:29:03.291Z,0.83
2023-04-24T04:30:06.222Z,1.00
2023-04-24T04:31:09.107Z,1.14
2023-04-24T04:32:11.941Z,1.50
2023-04-24T04:33:15.025Z,2.00
2023-04-24T04:34:17.948Z,2.43
2023-04-24T04:35:21.870Z,2.67
2023-04-24T04:36:24.922Z,2.00
2023-04-24T04:37:27.550Z,2.00
2023-04-24T04:38:30.428Z,3.00
2023-04-24T04:39:33.420Z,2.57
2023-04-24T04:40:36.474Z,2.00
2023-04-24T04:41:39.386Z,1.17
2023-04-24T04:42:42.265Z,1.33
2023-04-24T04:43:45.186Z,1.14
2023-04-24T04:44:48.137Z,2.00
2023-04-24T04:45:51.147Z,1.17
2023-04-24T04:46:54.045Z,1.43
2023-04-24T04:47:56.898Z,1.33
2023-04-24T04:48:59.698Z,1.67
2023-04-24T04:50:02.275Z,1.14
2023-04-24T04:51:05.264Z,1.33
2023-04-24T04:52:08.047Z,1.43
2023-04-24T04:53:10.823Z,1.50
2023-04-24T04:54:13.704Z,2.71
2023-04-24T04:55:16.391Z,2.33
2023-04-24T04:56:19.021Z,2.67
2023-04-24T04:57:21.694Z,1.33
2023-04-24T04:58:24.360Z,2.00
2023-04-24T04:59:26.976Z,2.00
2023-04-24T05:00:29.616Z,2.67
2023-04-24T05:01:32.448Z,2.67
2023-04-24T05:02:35.215Z,3.00
2023-04-24T05:03:38.153Z,3.00
2023-04-24T05:04:41.107Z,2.00
2023-04-24T05:05:44.068Z,2.43
2023-04-24T05:06:47.032Z,3.33
2023-04-24T05:07:50.095Z,1.67
2023-04-24T05:08:52.993Z,2.00
2023-04-24T05:09:55.816Z,2.14
2023-04-24T05:10:58.657Z,3.17
2023-04-24T05:12:01.524Z,2.86
2023-04-24T05:13:04.454Z,3.00
2023-04-24T05:14:07.076Z,3.00
2023-04-24T05:15:09.671Z,2.33
2023-04-24T05:16:12.362Z,3.00
2023-04-24T05:17:15.306Z,1.83
2023-04-24T05:18:17.999Z,2.00
2023-04-24T05:19:20.569Z,2.33
2023-04-24T05:20:23.201Z,3.00
2023-04-24T05:21:25.766Z,2.50
2023-04-24T05:22:28.467Z,3.00
2023-04-24T05:23:31.090Z,3.00
2023-04-24T05:24:33.713Z,3.00
2023-04-24T05:25:36.380Z,3.00
2023-04-24T05:26:39.066Z,2.00
2023-04-24T05:27:41.726Z,2.00
2023-04-24T05:28:44.271Z,2.00
2023-04-24T05:29:47.196Z,2.67
2023-04-24T05:30:50.063Z,4.00
2023-04-24T05:31:52.967Z,3.86
2023-04-24T05:32:55.739Z,3.71
2023-04-24T05:33:58.277Z,3.50
2023-04-24T05:35:00.972Z,3.33
2023-04-24T05:36:03.747Z,4.00
2023-04-24T05:37:06.374Z,3.57
2023-04-24T05:38:09.061Z,3.67
2023-04-24T05:39:11.755Z,3.67
2023-04-24T05:40:14.381Z,4.00
2023-04-24T05:41:34.266Z,3.00
2023-04-24T05:42:37.663Z,2.00
2023-04-24T05:43:41.138Z,2.57
2023-04-24T05:44:44.334Z,1.86
2023-04-24T05:45:47.716Z,2.00
2023-04-24T05:46:51.158Z,2.57
2023-04-24T05:47:54.830Z,2.57
2023-04-24T05:48:58.276Z,3.00
2023-04-24T05:50:01.971Z,3.00
2023-04-24T05:51:05.329Z,2.87
2023-04-24T05:52:08.638Z,2.00
2023-04-24T05:53:11.869Z,2.86
2023-04-24T05:54:15.312Z,2.86
2023-04-24T05:55:18.709Z,2.43
2023-04-24T05:56:22.293Z,3.00
2023-04-24T05:57:25.598Z,2.50
2023-04-24T05:58:28.727Z,2.43
2023-04-24T05:59:32.044Z,2.71
2023-04-24T06:00:35.356Z,2.00
2023-04-24T06:01:38.408Z,2.00
2023-04-24T06:04:47.585Z,2.83
2023-04-24T06:05:51.238Z,3.71
2023-04-24T06:06:54.640Z,2.86
2023-04-24T06:07:57.865Z,2.71
2023-04-24T06:09:01.193Z,1.43
2023-04-24T06:10:04.574Z,2.43
2023-04-24T06:11:08.101Z,3.00
2023-04-24T06:12:11.246Z,2.57
2023-04-24T06:13:14.439Z,2.00
2023-04-24T06:14:17.731Z,2.29
2023-04-24T06:15:21.007Z,2.29
2023-04-24T06:16:24.303Z,2.43
2023-04-24T06:17:27.930Z,2.86
2023-04-24T06:18:31.362Z,3.50
2023-04-24T06:19:34.732Z,3.57
2023-04-24T06:20:40.218Z,3.00
2023-04-24T06:21:45.290Z,3.00
2023-04-24T06:22:48.494Z,3.00
2023-04-24T06:23:51.984Z,2.50
2023-04-24T06:24:55.585Z,2.43
2023-04-24T06:25:58.972Z,3.00
2023-04-24T06:27:02.395Z,3.00
2023-04-24T06:28:05.553Z,1.71
2023-04-24T06:29:09.013Z,2.00
2023-04-24T06:30:12.511Z,3.00
2023-04-24T06:31:15.994Z,2.43
2023-04-24T06:32:19.580Z,2.43
2023-04-24T06:33:23.813Z,2.14
2023-04-24T06:34:27.505Z,1.50
2023-04-24T06:35:32.756Z,2.50
2023-04-24T06:36:36.147Z,2.50
2023-04-24T06:37:39.612Z,3.00
2023-04-24T06:38:43.092Z,2.67
2023-04-24T06:39:46.474Z,2.14
2023-04-24T06:40:50.575Z,2.00
2023-04-24T06:41:54.398Z,2.50
2023-04-24T06:42:58.175Z,2.50
2023-04-24T06:44:01.866Z,1.57
2023-04-24T06:45:05.885Z,1.50
2023-04-24T06:46:09.765Z,1.50
2023-04-24T06:47:13.830Z,1.14
2023-04-24T06:48:17.168Z,1.37
2023-04-24T06:49:20.636Z,1.43
2023-04-24T06:50:24.336Z,2.00
2023-04-24T06:59:57.981Z,2.00
2023-04-24T07:01:01.489Z,0.43
2023-04-24T07:02:05.268Z,2.29
2023-04-24T07:03:08.596Z,2.29
2023-04-24T07:04:12.020Z,0.67
2023-04-24T07:05:15.219Z,1.57
2023-04-24T07:06:18.619Z,1.00
2023-04-24T07:07:23.552Z,1.00
2023-04-24T07:08:26.740Z,1.12
2023-04-24T07:09:30.216Z,1.57
2023-04-24T07:10:34.003Z,1.00
2023-04-24T07:11:37.595Z,1.00
2023-04-24T07:12:40.887Z,1.43
2023-04-24T07:13:44.256Z,1.43
2023-04-24T07:14:47.755Z,1.00
2023-04-24T07:15:51.041Z,1.00
2023-04-24T07:16:54.418Z,1.00
2023-04-24T07:17:57.741Z,1.00
2023-04-24T07:19:01.292Z,0.86
2023-04-24T07:20:04.704Z,1.00
2023-04-24T07:21:08.100Z,1.00
2023-04-24T07:22:11.353Z,0.57
2023-04-24T07:23:14.655Z,0.57
2023-04-24T07:24:19.385Z,0.57
2023-04-24T07:25:22.762Z,0.50
2023-04-24T07:26:25.898Z,1.00
2023-04-24T07:27:29.225Z,1.33
2023-04-24T07:28:32.615Z,1.43
2023-04-24T07:29:35.830Z,1.00
2023-04-24T07:30:39.064Z,0.57
2023-04-24T07:31:42.488Z,0.17
2023-04-24T07:32:45.759Z,0.00
2023-04-24T07:33:48.921Z,0.43
2023-04-24T07:34:52.213Z,1.43
2023-04-24T07:35:57.533Z,1.67
2023-04-24T07:37:00.913Z,1.00
2023-04-24T07:38:04.220Z,1.00
2023-04-24T07:39:07.323Z,1.00
2023-04-24T07:40:10.476Z,1.00
2023-04-24T07:41:13.955Z,1.00
2023-04-24T07:42:17.350Z,1.43
2023-04-24T07:43:21.035Z,1.57
2023-04-24T07:44:24.312Z,1.00
2023-04-24T07:45:28.077Z,0.57
2023-04-24T07:46:31.706Z,0.43
2023-04-24T07:47:35.253Z,1.00
2023-04-24T07:48:38.679Z,0.57
2023-04-24T07:49:42.489Z,0.29
2023-04-24T07:50:46.174Z,0.88
2023-04-24T07:51:49.455Z,1.00
2023-04-24T07:52:52.744Z,0.14
2023-04-24T07:53:56.129Z,0.57
2023-04-24T07:54:59.490Z,1.00
2023-04-24T07:56:03.010Z,1.00
2023-04-24T07:57:06.289Z,1.00
2023-04-24T07:58:09.878Z,0.57
2023-04-24T07:59:13.267Z,0.00
2023-04-24T08:00:16.856Z,0.57
2023-04-24T08:01:20.050Z,1.57
2023-04-24T08:02:23.518Z,0.67
2023-04-24T08:03:27.409Z,1.00
2023-04-24T08:04:31.055Z,1.00
2023-04-24T08:05:35.018Z,1.00
2023-04-24T08:06:38.204Z,1.43
2023-04-24T08:07:41.496Z,2.00
2023-04-24T08:08:45.888Z,2.00
2023-04-24T08:09:49.301Z,1.50
2023-04-24T08:10:52.712Z,1.00
2023-04-24T08:11:56.050Z,0.57
2023-04-24T08:12:59.332Z,0.43
2023-04-24T08:14:02.835Z,1.00
2023-04-24T08:15:06.468Z,1.00
2023-04-24T08:16:09.932Z,1.00
2023-04-24T08:17:13.311Z,2.00
2023-04-24T08:18:16.863Z,1.29
2023-04-24T08:19:20.293Z,1.00
2023-04-24T08:20:23.656Z,1.00
2023-04-24T08:21:26.958Z,1.00
2023-04-24T08:22:30.350Z,1.71
2023-04-24T08:23:36.643Z,1.71
2023-04-24T08:24:39.970Z,2.00
2023-04-24T08:25:43.524Z,2.00
2023-04-24T08:26:47.067Z,1.43
2023-04-24T08:27:50.345Z,2.00
2023-04-24T08:28:54.096Z,2.00
2023-04-24T08:29:57.441Z,1.50
2023-04-24T08:31:01.033Z,1.71
2023-04-24T08:32:04.882Z,1.71
2023-04-24T08:33:08.844Z,1.12
2023-04-24T08:34:12.402Z,1.43
2023-04-24T08:35:16.309Z,2.86
2023-04-24T08:36:20.707Z,3.00
2023-04-24T08:37:24.823Z,2.12
2023-04-24T08:38:28.919Z,2.00
2023-04-24T08:39:33.348Z,2.50
2023-04-24T08:40:37.215Z,2.50
2023-04-24T08:41:40.716Z,2.00
2023-04-24T08:42:45.331Z,2.43
2023-04-24T08:43:49.431Z,2.62
2023-04-24T08:44:53.428Z,3.00
2023-04-24T08:45:57.335Z,1.75
2023-04-24T08:47:01.019Z,2.29
2023-04-24T08:48:04.386Z,3.43
2023-04-24T08:49:07.620Z,3.86
2023-04-24T08:50:10.786Z,3.57
2023-04-24T08:51:14.291Z,4.00
2023-04-24T08:52:17.854Z,3.14
2023-04-24T08:53:21.258Z,3.00
2023-04-24T08:54:24.959Z,3.29
2023-04-24T08:55:28.634Z,3.00
2023-04-24T08:56:32.133Z,3.00
2023-04-24T08:57:35.915Z,2.43
2023-04-24T08:58:39.507Z,2.50
2023-04-24T08:59:43.281Z,2.43
2023-04-24T09:00:47.097Z,3.00
2023-04-24T09:01:50.736Z,3.00
2023-04-24T09:02:54.279Z,2.87
2023-04-24T09:03:57.945Z,3.00
2023-04-24T09:05:01.780Z,3.14
2023-04-24T09:06:05.572Z,3.00
2023-04-24T09:07:09.053Z,3.00
2023-04-24T09:08:12.450Z,2.57
2023-04-24T09:09:15.841Z,2.00
2023-04-24T09:10:19.963Z,2.14
2023-04-24T09:11:23.227Z,2.87
2023-04-24T09:12:26.813Z,1.57
2023-04-24T09:13:31.320Z,1.43
2023-04-24T09:14:34.724Z,2.00
2023-04-24T09:15:38.054Z,2.00
2023-04-24T09:16:41.628Z,2.00
2023-04-24T09:17:44.793Z,2.29
2023-04-24T09:18:48.355Z,2.43
2023-04-24T09:19:51.563Z,3.50
2023-04-24T09:20:55.457Z,3.67
2023-04-24T09:21:59.252Z,2.86
2023-04-24T09:23:02.516Z,2.50
2023-04-24T09:24:06.003Z,2.43
2023-04-24T09:25:09.386Z,2.57
2023-04-24T09:26:12.680Z,2.43
2023-04-24T09:27:15.859Z,2.57
2023-04-24T09:28:19.054Z,2.43
2023-04-24T09:29:22.746Z,2.71
2023-04-24T09:30:26.018Z,2.71
2023-04-24T09:31:29.343Z,3.00
2023-04-24T09:32:32.966Z,3.57
2023-04-24T09:33:36.298Z,3.86
2023-04-24T09:34:39.566Z,3.29
2023-04-24T09:35:42.747Z,3.50
2023-04-24T09:36:46.133Z,2.67
2023-04-24T09:37:49.743Z,3.50
2023-04-24T09:38:53.218Z,3.00
2023-04-24T09:39:56.608Z,3.00
2023-04-24T09:41:00.109Z,4.29
2023-04-24T09:42:03.619Z,4.71
2023-04-24T09:43:06.964Z,2.57
2023-04-24T09:44:10.362Z,2.43
2023-04-24T09:45:15.613Z,3.43
2023-04-24T09:46:18.374Z,3.50
2023-04-24T09:47:21.814Z,3.00
2023-04-24T09:48:25.540Z,3.00
2023-04-24T09:49:29.032Z,2.57
2023-04-24T09:50:32.160Z,2.00
2023-04-24T09:51:35.362Z,2.43
2023-04-24T09:52:38.676Z,3.43
2023-04-24T09:53:41.975Z,2.57
2023-04-24T09:54:45.317Z,2.43
2023-04-24T09:55:48.639Z,3.00
2023-04-24T09:56:51.917Z,3.00
2023-04-24T09:57:55.444Z,3.37
2023-04-24T09:58:59.093Z,2.57
2023-04-24T10:00:02.491Z,2.43
2023-04-24T10:01:05.744Z,2.86
2023-04-24T10:02:09.166Z,2.43
2023-04-24T10:03:12.664Z,3.00
2023-04-24T10:04:16.445Z,2.43
2023-04-24T10:05:19.748Z,3.14
2023-04-24T10:06:23.010Z,3.43
2023-04-24T10:07:26.498Z,3.14
2023-04-24T10:08:30.204Z,3.00
2023-04-24T10:09:33.620Z,3.00
2023-04-24T10:10:37.178Z,2.57
2023-04-24T10:11:40.579Z,3.71
2023-04-24T10:12:44.099Z,5.00
2023-04-24T10:13:47.241Z,3.57
2023-04-24T10:14:50.532Z,2.67
2023-04-24T10:15:53.961Z,2.33
2023-04-24T10:16:57.070Z,3.43
2023-04-24T10:18:00.456Z,3.17
2023-04-24T10:19:03.877Z,3.00
2023-04-24T10:20:07.573Z,3.00
2023-04-24T10:21:10.990Z,3.29
2023-04-24T10:22:14.570Z,3.00
2023-04-24T10:23:17.970Z,2.86
2023-04-24T10:24:21.774Z,3.43
2023-04-24T10:25:26.126Z,3.50
2023-04-24T10:26:30.159Z,3.00
2023-04-24T10:27:33.720Z,3.00
2023-04-24T10:28:37.102Z,2.57
2023-04-24T10:29:41.997Z,2.86
2023-04-24T10:30:45.537Z,3.50
2023-04-24T10:31:49.500Z,3.29
2023-04-24T10:32:52.850Z,4.57
2023-04-24T10:33:56.179Z,5.00
2023-04-24T10:34:59.683Z,4.57
2023-04-24T10:36:02.880Z,3.86
2023-04-24T10:37:07.165Z,3.50
2023-04-24T10:38:10.480Z,3.43
2023-04-24T10:39:13.842Z,3.00
2023-04-24T10:40:17.551Z,3.00
2023-04-24T10:41:20.708Z,2.57
2023-04-24T10:42:23.775Z,2.67
2023-04-24T10:43:27.279Z,3.00
2023-04-24T10:44:31.076Z,3.00
2023-04-24T10:45:34.308Z,3.00
2023-04-24T10:46:37.573Z,3.00
2023-04-24T10:47:41.181Z,3.43
2023-04-24T10:48:44.554Z,3.57
2023-04-24T10:49:47.816Z,3.43
2023-04-24T10:50:50.990Z,3.57
2023-04-24T10:51:54.509Z,3.00
2023-04-24T10:52:58.076Z,3.43
2023-04-24T10:54:01.665Z,3.86
2023-04-24T10:55:07.282Z,3.86
2023-04-24T10:56:11.057Z,2.50
2023-04-24T10:57:14.832Z,2.29
2023-04-24T10:58:18.298Z,3.00
2023-04-24T10:59:22.794Z,2.50
2023-04-24T11:00:26.991Z,2.00
2023-04-24T11:01:30.639Z,2.50
2023-04-24T11:02:34.385Z,2.14
2023-04-24T11:03:38.002Z,1.75
2023-04-24T11:04:41.714Z,2.43
2023-04-24T11:05:45.256Z,2.43
2023-04-24T11:06:48.847Z,1.86
2023-04-24T11:07:53.808Z,2.43
2023-04-24T11:08:57.583Z,2.62
2023-04-24T11:10:01.289Z,3.00
2023-04-24T11:11:04.858Z,2.86
2023-04-24T11:12:08.693Z,3.00
2023-04-24T11:13:12.842Z,3.00
2023-04-24T11:14:16.547Z,3.00
2023-04-24T11:15:20.055Z,3.00
2023-04-24T11:16:23.837Z,2.43
2023-04-24T11:17:27.436Z,3.00
2023-04-24T11:18:30.714Z,3.43
2023-04-24T11:19:34.407Z,3.57
2023-04-24T11:20:38.088Z,2.87
2023-04-24T11:21:41.685Z,2.00
2023-04-24T11:22:44.867Z,2.00
2023-04-24T11:23:48.252Z,2.00
2023-04-24T11:24:51.878Z,2.43
2023-04-24T11:25:55.033Z,2.57
2023-04-24T11:26:58.077Z,2.14
2023-04-24T11:28:01.303Z,2.00
2023-04-24T11:29:04.787Z,2.00
2023-04-24T11:30:08.009Z,3.00
2023-04-24T11:31:11.243Z,3.00
2023-04-24T11:32:14.849Z,3.00
2023-04-24T11:33:18.297Z,2.00
2023-04-24T11:34:21.846Z,1.67
2023-04-24T11:35:25.519Z,1.71
2023-04-24T11:36:34.076Z,2.00
2023-04-24T11:37:37.345Z,2.75
2023-04-24T11:38:41.196Z,2.57
2023-04-24T11:39:44.493Z,2.86
2023-04-24T11:40:51.144Z,3.57
2023-04-24T11:41:54.430Z,2.50
2023-04-24T11:42:58.145Z,3.00
2023-04-24T11:44:01.438Z,2.57
2023-04-24T11:45:04.794Z,2.43
2023-04-24T11:46:09.952Z,3.29
2023-04-24T11:47:12.898Z,3.00
2023-04-24T11:48:16.383Z,2.57
2023-04-24T11:49:19.847Z,2.43
2023-04-24T11:50:23.069Z,3.14
2023-04-24T11:51:31.283Z,2.00
2023-04-24T11:52:32.716Z,2.25
2023-04-24T11:53:36.086Z,3.43
2023-04-24T11:54:39.379Z,4.29
2023-04-24T11:55:42.763Z,3.33
2023-04-24T11:56:46.326Z,2.29
2023-04-24T11:57:49.666Z,2.43
2023-04-24T11:58:53.047Z,2.43
2023-04-24T11:59:56.204Z,3.67
2023-04-24T12:00:59.725Z,4.00
2023-04-24T12:02:03.067Z,2.43
2023-04-24T12:03:07.869Z,3.00
2023-04-24T12:04:11.558Z,3.00
2023-04-24T12:05:15.309Z,2.57
2023-04-24T12:06:19.961Z,3.50
2023-04-24T12:07:23.213Z,3.57
2023-04-24T12:08:26.904Z,2.00
2023-04-24T12:09:30.081Z,2.50
2023-04-24T12:10:33.439Z,2.57
2023-04-24T12:11:36.657Z,2.43
2023-04-24T12:12:39.922Z,2.57
2023-04-24T12:13:43.505Z,2.00
2023-04-24T12:14:48.998Z,2.00
2023-04-24T12:15:53.312Z,2.50
2023-04-24T12:16:56.944Z,2.75
2023-04-24T12:18:00.652Z,2.43
2023-04-24T12:19:03.950Z,2.50
2023-04-24T12:20:07.112Z,2.71
2023-04-24T12:21:10.494Z,3.00
2023-04-24T12:22:13.872Z,3.43
2023-04-24T12:23:17.058Z,3.43
2023-04-24T12:24:20.229Z,2.29
2023-04-24T12:25:23.534Z,2.33
2023-04-24T12:26:26.729Z,2.71
2023-04-24T12:27:30.101Z,3.00
2023-04-24T12:28:33.402Z,2.50
2023-04-24T12:29:36.665Z,2.43
2023-04-24T12:30:40.151Z,3.00
2023-04-24T12:31:43.921Z,3.43
2023-04-24T12:32:47.344Z,4.00
2023-04-24T12:33:50.717Z,3.67
2023-04-24T12:34:54.429Z,2.57
2023-04-24T12:35:57.594Z,2.86
2023-04-24T12:37:01.207Z,3.43
2023-04-24T12:38:04.571Z,3.00
2023-04-24T12:39:07.970Z,3.00
2023-04-24T12:40:11.252Z,3.43
2023-04-24T12:41:14.521Z,3.67
2023-04-24T12:42:17.810Z,2.71
2023-04-24T12:43:20.974Z,2.43
2023-04-24T12:44:24.113Z,3.00
2023-04-24T12:45:27.406Z,2.67
2023-04-24T12:46:30.793Z,2.50
2023-04-24T12:47:33.926Z,3.33
2023-04-24T12:48:37.245Z,3.67
2023-04-24T12:49:40.393Z,2.57
2023-04-24T12:50:46.368Z,2.43
2023-04-24T12:51:49.414Z,3.50
2023-04-24T12:52:52.911Z,3.00
2023-04-24T12:53:56.655Z,3.00
2023-04-24T12:55:00.124Z,3.00
2023-04-24T12:56:03.372Z,3.00
2023-04-24T12:57:06.775Z,3.43
2023-04-24T12:58:10.176Z,3.57
2023-04-24T12:59:13.893Z,3.00
2023-04-24T13:00:19.454Z,3.50
2023-04-24T13:01:22.032Z,3.00
2023-04-24T13:02:25.569Z,3.12
2023-04-24T13:03:29.190Z,2.14
2023-04-24T13:04:32.820Z,2.86
2023-04-24T13:05:36.131Z,4.00
2023-04-24T13:06:39.328Z,3.86
2023-04-24T13:07:43.101Z,4.67
2023-04-24T13:08:46.382Z,3.57
2023-04-24T13:09:49.756Z,3.71
2023-04-24T13:10:53.552Z,3.71
2023-04-24T13:11:57.157Z,4.50
2023-04-24T13:13:00.336Z,4.71
2023-04-24T13:14:04.020Z,4.00
2023-04-24T13:15:07.350Z,4.00
2023-04-24T13:16:10.802Z,4.00
2023-04-24T13:17:14.105Z,3.57
2023-04-24T13:18:17.373Z,3.86
2023-04-24T13:19:20.662Z,3.57
2023-04-24T13:20:23.925Z,3.43
2023-04-24T13:21:27.490Z,4.00
2023-04-24T13:22:30.918Z,3.29
2023-04-24T13:23:34.293Z,2.86
2023-04-24T13:24:39.228Z,4.00
2023-04-24T13:25:41.812Z,4.00
2023-04-24T13:26:45.273Z,3.57
2023-04-24T13:27:49.718Z,3.00
2023-04-24T13:28:52.897Z,3.00
2023-04-24T13:30:03.847Z,3.43
2023-04-24T13:31:07.433Z,4.00
2023-04-24T13:32:10.724Z,3.57
2023-04-24T13:33:14.011Z,3.33
2023-04-24T13:34:17.285Z,4.00
2023-04-24T13:35:20.459Z,2.67
2023-04-24T13:36:23.678Z,3.00
2023-04-24T13:37:26.923Z,4.00
2023-04-24T13:38:30.193Z,5.17
2023-04-24T13:39:33.584Z,5.29
2023-04-24T13:40:37.114Z,3.71
2023-04-24T13:41:40.462Z,4.57
2023-04-24T13:42:43.854Z,4.29
2023-04-24T13:43:47.145Z,3.57
2023-04-24T13:44:50.647Z,3.43
2023-04-24T13:45:54.174Z,4.43
2023-04-24T13:46:57.621Z,4.57
2023-04-24T13:48:01.064Z,3.57
2023-04-24T13:49:04.396Z,3.00
2023-04-24T13:50:08.108Z,3.00
2023-04-24T13:51:11.493Z,3.00
2023-04-24T13:52:14.579Z,4.33
2023-04-24T13:53:18.254Z,4.71
2023-04-24T13:54:21.528Z,3.00
2023-04-24T13:55:25.545Z,3.00
2023-04-24T13:56:29.577Z,3.86
2023-04-24T13:57:32.734Z,4.14
2023-04-24T13:58:36.982Z,3.33
2023-04-24T13:59:41.276Z,3.37
2023-04-24T14:00:45.142Z,3.00
2023-04-24T14:01:49.024Z,3.43
2023-04-24T14:02:53.197Z,3.50
2023-04-24T14:03:56.908Z,3.00
2023-04-24T14:05:00.628Z,4.00
2023-04-24T14:06:04.818Z,4.14
2023-04-24T14:07:08.114Z,5.00
2023-04-24T14:08:11.589Z,4.14
2023-04-24T14:09:15.172Z,3.29
2023-04-24T14:10:18.569Z,3.71
2023-04-24T14:11:22.188Z,3.14
2023-04-24T14:12:25.456Z,2.86
2023-04-24T14:13:28.631Z,4.00
2023-04-24T14:14:31.925Z,4.00
2023-04-24T14:15:35.199Z,4.29